KNGU/NGU METAR and TAF weather

Enter ICAO airport designator
Station Type Date Time Source
KNGU METAR 2019/08/25 19:59 UTC NOAA

KNGU 251959Z 06011KT 10SM SCT030 BKN065 OVC085 25/18 A3011 RMK AO2 SLP196 T02500183 $


Station Type Date Time Source
KNGU Decoded METAR 2019/08/25 19:59 UTC NOAA

Station name not available
Aug 25, 2019 - 03:59 PM EDT / 2019.08.25 1959 UTC
Wind: from the ENE (060 degrees) at 13 MPH (11 KT):0
Visibility: 10 mile(s):0
Sky conditions: overcast
Temperature: 77.0 F (25.0 C)
Dew Point: 64.9 F (18.3 C)
Relative Humidity: 66%
Pressure (altimeter): 30.11 in. Hg (1019 hPa)
ob: KNGU 251959Z 06011KT 10SM SCT030 BKN065 OVC085 25/18 A3011 RMK AO2 SLP196 T02500183
cycle: 20

Station Type Date Time Source
KNGU TAF 2019/08/25 15:09 UTC NOAA

TAF KNGU 2515/2615 03015G20KT 9999 FEW030 SCT050 BKN070 QNH3008INS
BECMG 2517/2518 05016G25KT 9999 VCSH FEW020 SCT030 BKN050 QNH3004INS
TEMPO 2521/2600 9000 -RA SCT020 BKN030 OVC060
BECMG 2523/2600 04014G22KT 9999 NSW QNH3003INS
BECMG 2605/2606 04012KT FEW030 SCT060 SCT250 QNH3002INS
BECMG 2611/2612 9999 VCSH SCT010 BKN025 OVC040 QNH3003INS
TEMPO 2612/2615 8000 RA BKN010 OVC030 T26/2519Z T21/2609Z FN00197

Example: see airport list